sensor_id;sensor_type;location;lat;lon;timestamp;temperature;humidity
19945;DHT22;10134;50.952;6.930;2023-01-16T00:00:19;7.90;99.90
19945;DHT22;10134;50.952;6.930;2023-01-16T00:02:46;7.90;99.90
19945;DHT22;10134;50.952;6.930;2023-01-16T00:05:14;7.90;99.90
19945;DHT22;10134;50.952;6.930;2023-01-16T00:07:41;7.90;99.90
19945;DHT22;10134;50.952;6.930;2023-01-16T00:10:09;7.90;99.90
19945;DHT22;10134;50.952;6.930;2023-01-16T00:12:36;7.90;99.90
19945;DHT22;10134;50.952;6.930;2023-01-16T00:15:04;7.90;99.90
19945;DHT22;10134;50.952;6.930;2023-01-16T00:17:31;7.80;99.90
19945;DHT22;10134;50.952;6.930;2023-01-16T00:19:59;7.80;99.90
19945;DHT22;10134;50.952;6.930;2023-01-16T00:22:26;7.80;99.90
19945;DHT22;10134;50.952;6.930;2023-01-16T00:24:53;7.70;99.90
19945;DHT22;10134;50.952;6.930;2023-01-16T00:27:21;7.70;99.90
19945;DHT22;10134;50.952;6.930;2023-01-16T00:29:48;7.60;99.90
19945;DHT22;10134;50.952;6.930;2023-01-16T00:32:15;7.60;99.90
19945;DHT22;10134;50.952;6.930;2023-01-16T00:34:42;7.60;99.90
19945;DHT22;10134;50.952;6.930;2023-01-16T00:37:10;7.60;99.90
19945;DHT22;10134;50.952;6.930;2023-01-16T00:39:37;7.60;99.90
19945;DHT22;10134;50.952;6.930;2023-01-16T00:42:07;7.60;99.90
19945;DHT22;10134;50.952;6.930;2023-01-16T00:44:34;7.50;99.90
19945;DHT22;10134;50.952;6.930;2023-01-16T00:47:02;7.60;99.90
19945;DHT22;10134;50.952;6.930;2023-01-16T00:49:31;7.60;99.90
19945;DHT22;10134;50.952;6.930;2023-01-16T00:51:59;7.70;99.90
19945;DHT22;10134;50.952;6.930;2023-01-16T00:54:26;7.60;99.90
19945;DHT22;10134;50.952;6.930;2023-01-16T00:56:53;7.60;99.90
19945;DHT22;10134;50.952;6.930;2023-01-16T00:59:21;7.70;99.90
19945;DHT22;10134;50.952;6.930;2023-01-16T01:01:48;7.70;99.90
19945;DHT22;10134;50.952;6.930;2023-01-16T01:04:15;7.70;99.90
19945;DHT22;10134;50.952;6.930;2023-01-16T01:06:43;7.70;99.90
19945;DHT22;10134;50.952;6.930;2023-01-16T01:09:11;7.70;99.90
19945;DHT22;10134;50.952;6.930;2023-01-16T01:11:38;7.70;99.90
19945;DHT22;10134;50.952;6.930;2023-01-16T01:14:05;7.70;99.90
19945;DHT22;10134;50.952;6.930;2023-01-16T01:16:32;7.80;99.90
19945;DHT22;10134;50.952;6.930;2023-01-16T01:19:00;7.80;99.90
19945;DHT22;10134;50.952;6.930;2023-01-16T01:21:27;7.80;99.90
19945;DHT22;10134;50.952;6.930;2023-01-16T01:23:56;7.80;99.90
19945;DHT22;10134;50.952;6.930;2023-01-16T01:26:23;7.80;99.90
19945;DHT22;10134;50.952;6.930;2023-01-16T01:28:50;7.80;99.90
19945;DHT22;10134;50.952;6.930;2023-01-16T01:31:18;7.70;99.90
19945;DHT22;10134;50.952;6.930;2023-01-16T01:33:45;7.70;99.90
19945;DHT22;10134;50.952;6.930;2023-01-16T01:36:12;7.70;99.90
19945;DHT22;10134;50.952;6.930;2023-01-16T01:38:40;7.70;99.90
19945;DHT22;10134;50.952;6.930;2023-01-16T01:41:08;7.70;99.90
19945;DHT22;10134;50.952;6.930;2023-01-16T01:48:47;7.60;99.90
19945;DHT22;10134;50.952;6.930;2023-01-16T01:51:21;7.60;99.90
19945;DHT22;10134;50.952;6.930;2023-01-16T01:54:02;7.60;99.90
19945;DHT22;10134;50.952;6.930;2023-01-16T01:56:39;7.60;99.90
19945;DHT22;10134;50.952;6.930;2023-01-16T01:59:14;7.60;99.90
19945;DHT22;10134;50.952;6.930;2023-01-16T02:01:42;7.50;99.90
19945;DHT22;10134;50.952;6.930;2023-01-16T02:04:15;7.50;99.90
19945;DHT22;10134;50.952;6.930;2023-01-16T02:06:47;7.50;99.90
19945;DHT22;10134;50.952;6.930;2023-01-16T02:09:15;7.50;99.90
19945;DHT22;10134;50.952;6.930;2023-01-16T02:12:06;7.40;99.90
19945;DHT22;10134;50.952;6.930;2023-01-16T02:14:38;7.40;99.90
19945;DHT22;10134;50.952;6.930;2023-01-16T02:17:16;7.30;99.90
19945;DHT22;10134;50.952;6.930;2023-01-16T02:20:21;7.30;99.90
19945;DHT22;10134;50.952;6.930;2023-01-16T02:25:53;7.20;99.90
19945;DHT22;10134;50.952;6.930;2023-01-16T02:28:43;7.20;99.90
19945;DHT22;10134;50.952;6.930;2023-01-16T02:31:44;7.10;99.90
19945;DHT22;10134;50.952;6.930;2023-01-16T02:39:56;7.00;99.90
19945;DHT22;10134;50.952;6.930;2023-01-16T02:42:45;7.00;99.90
19945;DHT22;10134;50.952;6.930;2023-01-16T02:50:52;7.00;99.90
19945;DHT22;10134;50.952;6.930;2023-01-16T02:53:26;7.00;99.90
19945;DHT22;10134;50.952;6.930;2023-01-16T02:55:57;7.00;99.90
19945;DHT22;10134;50.952;6.930;2023-01-16T02:58:31;7.10;99.90
19945;DHT22;10134;50.952;6.930;2023-01-16T03:01:00;7.10;99.90
19945;DHT22;10134;50.952;6.930;2023-01-16T03:03:38;7.10;99.90
19945;DHT22;10134;50.952;6.930;2023-01-16T03:09:21;7.20;99.90
19945;DHT22;10134;50.952;6.930;2023-01-16T03:26:13;7.10;99.90
19945;DHT22;10134;50.952;6.930;2023-01-16T03:31:49;7.00;99.90
19945;DHT22;10134;50.952;6.930;2023-01-16T03:34:20;7.00;99.90
19945;DHT22;10134;50.952;6.930;2023-01-16T03:37:00;7.00;99.90
19945;DHT22;10134;50.952;6.930;2023-01-16T03:39:34;7.00;99.90
19945;DHT22;10134;50.952;6.930;2023-01-16T03:42:07;7.10;99.90
19945;DHT22;10134;50.952;6.930;2023-01-16T03:44:39;7.10;99.90
19945;DHT22;10134;50.952;6.930;2023-01-16T03:47:15;7.00;99.90
19945;DHT22;10134;50.952;6.930;2023-01-16T03:49:49;7.00;99.90
19945;DHT22;10134;50.952;6.930;2023-01-16T03:52:20;7.00;99.90
19945;DHT22;10134;50.952;6.930;2023-01-16T03:58:02;7.10;99.90
19945;DHT22;10134;50.952;6.930;2023-01-16T04:00:41;7.10;99.90
19945;DHT22;10134;50.952;6.930;2023-01-16T04:03:19;7.10;99.90
19945;DHT22;10134;50.952;6.930;2023-01-16T04:05:55;7.10;99.90
19945;DHT22;10134;50.952;6.930;2023-01-16T04:08:30;7.10;99.90
19945;DHT22;10134;50.952;6.930;2023-01-16T04:10:59;7.10;99.90
19945;DHT22;10134;50.952;6.930;2023-01-16T04:13:32;7.10;99.90
19945;DHT22;10134;50.952;6.930;2023-01-16T04:16:01;7.10;99.90
19945;DHT22;10134;50.952;6.930;2023-01-16T04:18:34;7.00;99.90
19945;DHT22;10134;50.952;6.930;2023-01-16T04:21:06;7.00;99.90
19945;DHT22;10134;50.952;6.930;2023-01-16T04:23:35;7.10;99.90
19945;DHT22;10134;50.952;6.930;2023-01-16T04:26:03;7.00;99.90
19945;DHT22;10134;50.952;6.930;2023-01-16T04:28:30;7.00;99.90
19945;DHT22;10134;50.952;6.930;2023-01-16T04:30:57;7.00;99.90
19945;DHT22;10134;50.952;6.930;2023-01-16T04:33:25;7.00;99.90
19945;DHT22;10134;50.952;6.930;2023-01-16T04:35:52;7.00;99.90
19945;DHT22;10134;50.952;6.930;2023-01-16T04:38:19;7.00;99.90
19945;DHT22;10134;50.952;6.930;2023-01-16T04:40:46;7.00;99.90
19945;DHT22;10134;50.952;6.930;2023-01-16T04:43:14;6.90;99.90
19945;DHT22;10134;50.952;6.930;2023-01-16T04:45:41;6.90;99.90
19945;DHT22;10134;50.952;6.930;2023-01-16T04:48:08;7.00;99.90
19945;DHT22;10134;50.952;6.930;2023-01-16T04:50:36;6.90;99.90
19945;DHT22;10134;50.952;6.930;2023-01-16T04:53:03;7.00;99.90
19945;DHT22;10134;50.952;6.930;2023-01-16T04:55:31;7.00;99.90
19945;DHT22;10134;50.952;6.930;2023-01-16T04:57:58;6.90;99.90
19945;DHT22;10134;50.952;6.930;2023-01-16T05:00:25;7.00;99.90
19945;DHT22;10134;50.952;6.930;2023-01-16T05:02:53;7.00;99.90
19945;DHT22;10134;50.952;6.930;2023-01-16T05:05:20;7.00;99.90
19945;DHT22;10134;50.952;6.930;2023-01-16T05:07:47;7.00;99.90
19945;DHT22;10134;50.952;6.930;2023-01-16T05:10:38;7.00;99.90
19945;DHT22;10134;50.952;6.930;2023-01-16T05:13:05;7.00;99.90
19945;DHT22;10134;50.952;6.930;2023-01-16T05:15:32;7.10;99.90
19945;DHT22;10134;50.952;6.930;2023-01-16T05:18:00;7.10;99.90
19945;DHT22;10134;50.952;6.930;2023-01-16T05:20:27;7.10;99.90
19945;DHT22;10134;50.952;6.930;2023-01-16T05:22:54;7.10;99.90
19945;DHT22;10134;50.952;6.930;2023-01-16T05:25:21;7.10;99.90
19945;DHT22;10134;50.952;6.930;2023-01-16T05:27:50;7.10;99.90
19945;DHT22;10134;50.952;6.930;2023-01-16T05:30:17;7.10;99.90
19945;DHT22;10134;50.952;6.930;2023-01-16T05:32:45;7.10;99.90
19945;DHT22;10134;50.952;6.930;2023-01-16T05:35:13;7.10;99.90
19945;DHT22;10134;50.952;6.930;2023-01-16T05:37:42;7.20;99.90
19945;DHT22;10134;50.952;6.930;2023-01-16T05:40:10;7.20;99.90
19945;DHT22;10134;50.952;6.930;2023-01-16T05:42:37;7.20;99.90
19945;DHT22;10134;50.952;6.930;2023-01-16T05:45:05;7.20;99.90
19945;DHT22;10134;50.952;6.930;2023-01-16T05:47:33;7.20;99.90
19945;DHT22;10134;50.952;6.930;2023-01-16T05:50:00;7.20;99.90
19945;DHT22;10134;50.952;6.930;2023-01-16T05:52:28;7.20;99.90
19945;DHT22;10134;50.952;6.930;2023-01-16T05:54:55;7.20;99.90
19945;DHT22;10134;50.952;6.930;2023-01-16T05:57:23;7.20;99.90
19945;DHT22;10134;50.952;6.930;2023-01-16T05:59:50;7.20;99.90
19945;DHT22;10134;50.952;6.930;2023-01-16T06:02:19;7.20;99.90
19945;DHT22;10134;50.952;6.930;2023-01-16T06:04:47;7.20;99.90
19945;DHT22;10134;50.952;6.930;2023-01-16T06:07:14;7.20;99.90
19945;DHT22;10134;50.952;6.930;2023-01-16T06:09:42;7.30;99.90
19945;DHT22;10134;50.952;6.930;2023-01-16T06:12:14;7.30;99.90
19945;DHT22;10134;50.952;6.930;2023-01-16T06:14:42;7.30;99.90
19945;DHT22;10134;50.952;6.930;2023-01-16T06:17:10;7.30;99.90
19945;DHT22;10134;50.952;6.930;2023-01-16T06:19:38;7.30;99.90
19945;DHT22;10134;50.952;6.930;2023-01-16T06:22:05;7.30;99.90
19945;DHT22;10134;50.952;6.930;2023-01-16T06:24:32;7.30;99.90
19945;DHT22;10134;50.952;6.930;2023-01-16T06:27:00;7.30;99.90
19945;DHT22;10134;50.952;6.930;2023-01-16T06:29:27;7.30;99.90
19945;DHT22;10134;50.952;6.930;2023-01-16T06:31:54;7.30;99.90
19945;DHT22;10134;50.952;6.930;2023-01-16T06:34:22;7.30;99.90
19945;DHT22;10134;50.952;6.930;2023-01-16T06:36:49;7.30;99.90
19945;DHT22;10134;50.952;6.930;2023-01-16T06:39:16;7.30;99.90
19945;DHT22;10134;50.952;6.930;2023-01-16T06:41:44;7.40;99.90
19945;DHT22;10134;50.952;6.930;2023-01-16T06:44:11;7.30;99.90
19945;DHT22;10134;50.952;6.930;2023-01-16T06:46:38;7.30;99.90
19945;DHT22;10134;50.952;6.930;2023-01-16T06:49:09;7.30;99.90
19945;DHT22;10134;50.952;6.930;2023-01-16T06:51:36;7.40;99.90
19945;DHT22;10134;50.952;6.930;2023-01-16T06:54:04;7.40;99.90
19945;DHT22;10134;50.952;6.930;2023-01-16T06:56:31;7.40;99.90
19945;DHT22;10134;50.952;6.930;2023-01-16T06:58:59;7.40;99.90
19945;DHT22;10134;50.952;6.930;2023-01-16T07:01:26;7.40;99.90
19945;DHT22;10134;50.952;6.930;2023-01-16T07:03:53;7.40;99.90
19945;DHT22;10134;50.952;6.930;2023-01-16T07:06:21;7.40;99.90
19945;DHT22;10134;50.952;6.930;2023-01-16T07:08:48;7.40;99.90
19945;DHT22;10134;50.952;6.930;2023-01-16T07:11:19;7.40;99.90
19945;DHT22;10134;50.952;6.930;2023-01-16T07:13:46;7.40;99.90
19945;DHT22;10134;50.952;6.930;2023-01-16T07:16:15;7.40;99.90
19945;DHT22;10134;50.952;6.930;2023-01-16T07:19:02;7.40;99.90
19945;DHT22;10134;50.952;6.930;2023-01-16T07:21:48;7.40;99.90
19945;DHT22;10134;50.952;6.930;2023-01-16T07:24:37;7.40;99.90
19945;DHT22;10134;50.952;6.930;2023-01-16T07:27:06;7.40;99.90
19945;DHT22;10134;50.952;6.930;2023-01-16T07:29:36;7.40;99.90
19945;DHT22;10134;50.952;6.930;2023-01-16T07:32:04;7.40;99.90
19945;DHT22;10134;50.952;6.930;2023-01-16T07:34:32;7.40;99.90
19945;DHT22;10134;50.952;6.930;2023-01-16T07:36:59;7.40;99.90
19945;DHT22;10134;50.952;6.930;2023-01-16T07:39:26;7.40;99.90
19945;DHT22;10134;50.952;6.930;2023-01-16T07:41:54;7.40;99.90
19945;DHT22;10134;50.952;6.930;2023-01-16T07:44:24;7.40;99.90
19945;DHT22;10134;50.952;6.930;2023-01-16T07:46:52;7.40;99.90
19945;DHT22;10134;50.952;6.930;2023-01-16T07:49:22;7.40;99.90
19945;DHT22;10134;50.952;6.930;2023-01-16T07:51:50;7.40;99.90
19945;DHT22;10134;50.952;6.930;2023-01-16T07:54:20;7.40;99.90
19945;DHT22;10134;50.952;6.930;2023-01-16T07:56:48;7.40;99.90
19945;DHT22;10134;50.952;6.930;2023-01-16T07:59:17;7.40;99.90
19945;DHT22;10134;50.952;6.930;2023-01-16T08:01:47;7.50;99.90
19945;DHT22;10134;50.952;6.930;2023-01-16T08:04:14;7.50;99.90
19945;DHT22;10134;50.952;6.930;2023-01-16T08:06:45;7.50;99.90
19945;DHT22;10134;50.952;6.930;2023-01-16T08:09:12;7.50;99.90
19945;DHT22;10134;50.952;6.930;2023-01-16T08:11:39;7.40;99.90
19945;DHT22;10134;50.952;6.930;2023-01-16T08:14:07;7.40;99.90
19945;DHT22;10134;50.952;6.930;2023-01-16T08:16:34;7.40;99.90
19945;DHT22;10134;50.952;6.930;2023-01-16T08:19:02;7.40;99.90
19945;DHT22;10134;50.952;6.930;2023-01-16T08:21:30;7.40;99.90
19945;DHT22;10134;50.952;6.930;2023-01-16T08:23:57;7.40;99.90
19945;DHT22;10134;50.952;6.930;2023-01-16T08:26:24;7.40;99.90
19945;DHT22;10134;50.952;6.930;2023-01-16T08:28:52;7.40;99.90
19945;DHT22;10134;50.952;6.930;2023-01-16T08:31:20;7.40;99.90
19945;DHT22;10134;50.952;6.930;2023-01-16T08:33:48;7.40;99.90
19945;DHT22;10134;50.952;6.930;2023-01-16T08:36:16;7.40;99.90
19945;DHT22;10134;50.952;6.930;2023-01-16T08:38:50;7.30;99.90
19945;DHT22;10134;50.952;6.930;2023-01-16T08:41:17;7.30;99.90
19945;DHT22;10134;50.952;6.930;2023-01-16T08:44:03;7.30;99.90
19945;DHT22;10134;50.952;6.930;2023-01-16T08:47:03;7.40;99.90
19945;DHT22;10134;50.952;6.930;2023-01-16T08:49:50;7.40;99.90
19945;DHT22;10134;50.952;6.930;2023-01-16T08:52:36;7.40;99.90
19945;DHT22;10134;50.952;6.930;2023-01-16T08:55:04;7.40;99.90
19945;DHT22;10134;50.952;6.930;2023-01-16T08:57:32;7.30;99.90
19945;DHT22;10134;50.952;6.930;2023-01-16T09:00:01;7.30;99.90
19945;DHT22;10134;50.952;6.930;2023-01-16T09:02:29;7.30;99.90
19945;DHT22;10134;50.952;6.930;2023-01-16T09:04:56;7.30;99.90
19945;DHT22;10134;50.952;6.930;2023-01-16T09:07:24;7.30;99.90
19945;DHT22;10134;50.952;6.930;2023-01-16T09:09:51;7.30;99.90
19945;DHT22;10134;50.952;6.930;2023-01-16T09:12:18;7.30;99.90
19945;DHT22;10134;50.952;6.930;2023-01-16T09:15:05;7.30;99.90
19945;DHT22;10134;50.952;6.930;2023-01-16T09:17:33;7.30;99.90
19945;DHT22;10134;50.952;6.930;2023-01-16T09:20:00;7.30;99.90
19945;DHT22;10134;50.952;6.930;2023-01-16T09:22:27;7.30;99.90
19945;DHT22;10134;50.952;6.930;2023-01-16T09:24:54;7.30;99.90
19945;DHT22;10134;50.952;6.930;2023-01-16T09:27:22;7.30;99.90
19945;DHT22;10134;50.952;6.930;2023-01-16T09:29:51;7.20;99.90
19945;DHT22;10134;50.952;6.930;2023-01-16T09:32:19;7.20;99.90
19945;DHT22;10134;50.952;6.930;2023-01-16T09:34:46;7.20;99.90
19945;DHT22;10134;50.952;6.930;2023-01-16T09:37:14;7.30;99.90
19945;DHT22;10134;50.952;6.930;2023-01-16T09:39:41;7.20;99.90
19945;DHT22;10134;50.952;6.930;2023-01-16T09:42:30;7.20;99.90
19945;DHT22;10134;50.952;6.930;2023-01-16T09:45:25;7.20;99.90
19945;DHT22;10134;50.952;6.930;2023-01-16T09:48:07;7.20;99.90
19945;DHT22;10134;50.952;6.930;2023-01-16T09:50:39;7.20;99.90
19945;DHT22;10134;50.952;6.930;2023-01-16T09:53:32;7.20;99.90
19945;DHT22;10134;50.952;6.930;2023-01-16T09:56:20;7.20;99.90
19945;DHT22;10134;50.952;6.930;2023-01-16T10:02:15;7.20;99.90
19945;DHT22;10134;50.952;6.930;2023-01-16T10:04:47;7.20;99.90
19945;DHT22;10134;50.952;6.930;2023-01-16T10:18:37;7.20;99.90
19945;DHT22;10134;50.952;6.930;2023-01-16T10:29:49;7.20;99.90
19945;DHT22;10134;50.952;6.930;2023-01-16T10:34:56;7.20;99.90
19945;DHT22;10134;50.952;6.930;2023-01-16T10:37:27;7.30;99.90
19945;DHT22;10134;50.952;6.930;2023-01-16T10:39:56;7.20;99.90
19945;DHT22;10134;50.952;6.930;2023-01-16T10:42:31;7.20;99.90
19945;DHT22;10134;50.952;6.930;2023-01-16T10:45:23;7.20;99.90
19945;DHT22;10134;50.952;6.930;2023-01-16T10:48:13;7.30;99.90
19945;DHT22;10134;50.952;6.930;2023-01-16T10:51:26;7.30;99.90
19945;DHT22;10134;50.952;6.930;2023-01-16T10:54:04;7.30;99.90
19945;DHT22;10134;50.952;6.930;2023-01-16T10:56:33;7.30;99.90
19945;DHT22;10134;50.952;6.930;2023-01-16T10:59:11;7.40;99.90
19945;DHT22;10134;50.952;6.930;2023-01-16T11:01:44;7.40;99.90
19945;DHT22;10134;50.952;6.930;2023-01-16T11:04:17;7.40;99.90
19945;DHT22;10134;50.952;6.930;2023-01-16T11:06:46;7.50;99.90
19945;DHT22;10134;50.952;6.930;2023-01-16T11:09:18;7.50;99.90
19945;DHT22;10134;50.952;6.930;2023-01-16T11:11:50;7.60;99.90
19945;DHT22;10134;50.952;6.930;2023-01-16T11:14:39;7.60;99.90
19945;DHT22;10134;50.952;6.930;2023-01-16T11:17:34;7.60;99.90
19945;DHT22;10134;50.952;6.930;2023-01-16T11:20:28;7.60;99.90
19945;DHT22;10134;50.952;6.930;2023-01-16T11:22:59;7.70;99.90
19945;DHT22;10134;50.952;6.930;2023-01-16T11:25:28;7.70;99.90
19945;DHT22;10134;50.952;6.930;2023-01-16T11:27:58;7.80;99.90
19945;DHT22;10134;50.952;6.930;2023-01-16T11:30:33;7.90;99.90
19945;DHT22;10134;50.952;6.930;2023-01-16T11:33:01;8.00;99.90
19945;DHT22;10134;50.952;6.930;2023-01-16T11:35:36;8.00;99.90
19945;DHT22;10134;50.952;6.930;2023-01-16T11:38:05;8.10;99.90
19945;DHT22;10134;50.952;6.930;2023-01-16T11:40:37;8.00;99.90
19945;DHT22;10134;50.952;6.930;2023-01-16T11:43:17;8.00;99.90
19945;DHT22;10134;50.952;6.930;2023-01-16T11:46:09;8.00;99.90
19945;DHT22;10134;50.952;6.930;2023-01-16T11:48:53;8.00;99.90
19945;DHT22;10134;50.952;6.930;2023-01-16T11:51:27;8.00;99.90
19945;DHT22;10134;50.952;6.930;2023-01-16T11:53:55;8.10;99.90
19945;DHT22;10134;50.952;6.930;2023-01-16T12:02:52;8.20;99.90
19945;DHT22;10134;50.952;6.930;2023-01-16T12:05:03;8.20;99.90
19945;DHT22;10134;50.952;6.930;2023-01-16T12:14:06;8.10;99.90
19945;DHT22;10134;50.952;6.930;2023-01-16T12:25:40;8.00;99.90
19945;DHT22;10134;50.952;6.930;2023-01-16T12:34:07;8.00;99.90
19945;DHT22;10134;50.952;6.930;2023-01-16T12:42:34;7.90;99.90
19945;DHT22;10134;50.952;6.930;2023-01-16T12:59:20;7.90;99.90
19945;DHT22;10134;50.952;6.930;2023-01-16T13:01:53;7.80;99.90
19945;DHT22;10134;50.952;6.930;2023-01-16T13:04:28;7.80;99.90
19945;DHT22;10134;50.952;6.930;2023-01-16T13:06:59;7.80;99.90
19945;DHT22;10134;50.952;6.930;2023-01-16T13:09:50;7.80;99.90
19945;DHT22;10134;50.952;6.930;2023-01-16T13:12:41;7.80;99.90
19945;DHT22;10134;50.952;6.930;2023-01-16T13:15:33;7.80;99.90
19945;DHT22;10134;50.952;6.930;2023-01-16T13:18:26;7.90;99.90
19945;DHT22;10134;50.952;6.930;2023-01-16T13:20:57;7.90;99.90
19945;DHT22;10134;50.952;6.930;2023-01-16T13:23:31;7.90;99.90
19945;DHT22;10134;50.952;6.930;2023-01-16T13:26:02;7.90;99.90
19945;DHT22;10134;50.952;6.930;2023-01-16T13:28:37;7.90;99.90
19945;DHT22;10134;50.952;6.930;2023-01-16T13:33:51;7.90;99.90
19945;DHT22;10134;50.952;6.930;2023-01-16T13:36:37;7.80;99.90
19945;DHT22;10134;50.952;6.930;2023-01-16T13:42:06;7.80;99.90
19945;DHT22;10134;50.952;6.930;2023-01-16T13:44:38;7.80;99.90
19945;DHT22;10134;50.952;6.930;2023-01-16T13:47:31;7.80;99.90
19945;DHT22;10134;50.952;6.930;2023-01-16T13:50:15;7.70;99.90
19945;DHT22;10134;50.952;6.930;2023-01-16T13:52:44;7.70;99.90
19945;DHT22;10134;50.952;6.930;2023-01-16T13:55:39;7.60;99.90
19945;DHT22;10134;50.952;6.930;2023-01-16T14:00:37;7.60;99.90
19945;DHT22;10134;50.952;6.930;2023-01-16T14:03:24;7.60;99.90
19945;DHT22;10134;50.952;6.930;2023-01-16T14:17:19;7.50;99.90
19945;DHT22;10134;50.952;6.930;2023-01-16T14:19:56;7.50;99.90
19945;DHT22;10134;50.952;6.930;2023-01-16T14:22:46;7.50;99.90
19945;DHT22;10134;50.952;6.930;2023-01-16T14:25:37;7.50;99.90
19945;DHT22;10134;50.952;6.930;2023-01-16T14:28:04;7.50;99.90
19945;DHT22;10134;50.952;6.930;2023-01-16T14:30:32;7.50;99.90
19945;DHT22;10134;50.952;6.930;2023-01-16T14:33:03;7.50;99.90
19945;DHT22;10134;50.952;6.930;2023-01-16T14:35:49;7.50;99.90
19945;DHT22;10134;50.952;6.930;2023-01-16T14:38:25;7.50;99.90
19945;DHT22;10134;50.952;6.930;2023-01-16T14:41:02;7.50;99.90
19945;DHT22;10134;50.952;6.930;2023-01-16T14:44:21;7.50;99.90
19945;DHT22;10134;50.952;6.930;2023-01-16T14:50:11;7.50;99.90
19945;DHT22;10134;50.952;6.930;2023-01-16T14:59:12;7.50;99.90
19945;DHT22;10134;50.952;6.930;2023-01-16T15:01:50;7.50;99.90
19945;DHT22;10134;50.952;6.930;2023-01-16T15:05:28;7.50;99.90
19945;DHT22;10134;50.952;6.930;2023-01-16T15:07:49;7.50;99.90
19945;DHT22;10134;50.952;6.930;2023-01-16T15:10:30;7.50;99.90
19945;DHT22;10134;50.952;6.930;2023-01-16T15:15:50;7.50;99.90
19945;DHT22;10134;50.952;6.930;2023-01-16T15:18:20;7.50;99.90
19945;DHT22;10134;50.952;6.930;2023-01-16T15:21:12;7.60;99.90
19945;DHT22;10134;50.952;6.930;2023-01-16T15:23:59;7.60;99.90
19945;DHT22;10134;50.952;6.930;2023-01-16T15:29:21;7.50;99.90
19945;DHT22;10134;50.952;6.930;2023-01-16T15:31:58;7.50;99.90
19945;DHT22;10134;50.952;6.930;2023-01-16T15:34:30;7.50;99.90
19945;DHT22;10134;50.952;6.930;2023-01-16T15:36:58;7.60;99.90
19945;DHT22;10134;50.952;6.930;2023-01-16T15:39:41;7.50;99.90
19945;DHT22;10134;50.952;6.930;2023-01-16T15:45:19;7.60;99.90
19945;DHT22;10134;50.952;6.930;2023-01-16T15:48:30;7.60;99.90
19945;DHT22;10134;50.952;6.930;2023-01-16T15:51:10;7.50;99.90
19945;DHT22;10134;50.952;6.930;2023-01-16T15:53:44;7.50;99.90
19945;DHT22;10134;50.952;6.930;2023-01-16T15:56:38;7.50;99.90
19945;DHT22;10134;50.952;6.930;2023-01-16T15:59:24;7.50;99.90
19945;DHT22;10134;50.952;6.930;2023-01-16T16:01:53;7.50;99.90
19945;DHT22;10134;50.952;6.930;2023-01-16T16:04:35;7.60;99.90
19945;DHT22;10134;50.952;6.930;2023-01-16T16:07:02;7.60;99.90
19945;DHT22;10134;50.952;6.930;2023-01-16T16:09:30;7.50;99.90
19945;DHT22;10134;50.952;6.930;2023-01-16T16:11:57;7.50;99.90
19945;DHT22;10134;50.952;6.930;2023-01-16T16:14:32;7.50;99.90
19945;DHT22;10134;50.952;6.930;2023-01-16T16:17:28;7.50;99.90
19945;DHT22;10134;50.952;6.930;2023-01-16T16:25:40;7.50;99.90
19945;DHT22;10134;50.952;6.930;2023-01-16T16:28:27;7.50;99.90
19945;DHT22;10134;50.952;6.930;2023-01-16T16:31:20;7.50;99.90
19945;DHT22;10134;50.952;6.930;2023-01-16T16:34:20;7.40;99.90
19945;DHT22;10134;50.952;6.930;2023-01-16T16:36:55;7.50;99.90
19945;DHT22;10134;50.952;6.930;2023-01-16T16:42:59;7.40;99.90
19945;DHT22;10134;50.952;6.930;2023-01-16T16:45:31;7.40;99.90
19945;DHT22;10134;50.952;6.930;2023-01-16T16:48:27;7.40;99.90
19945;DHT22;10134;50.952;6.930;2023-01-16T16:51:19;7.40;99.90
19945;DHT22;10134;50.952;6.930;2023-01-16T16:53:51;7.40;99.90
19945;DHT22;10134;50.952;6.930;2023-01-16T16:56:26;7.40;99.90
19945;DHT22;10134;50.952;6.930;2023-01-16T16:58:56;7.30;99.90
19945;DHT22;10134;50.952;6.930;2023-01-16T17:01:36;7.30;99.90
19945;DHT22;10134;50.952;6.930;2023-01-16T17:04:05;7.30;99.90
19945;DHT22;10134;50.952;6.930;2023-01-16T17:06:34;7.30;99.90
19945;DHT22;10134;50.952;6.930;2023-01-16T17:09:03;7.30;99.90
19945;DHT22;10134;50.952;6.930;2023-01-16T17:11:31;7.30;99.90
19945;DHT22;10134;50.952;6.930;2023-01-16T17:13:58;7.30;99.90
19945;DHT22;10134;50.952;6.930;2023-01-16T17:16:28;7.30;99.90
19945;DHT22;10134;50.952;6.930;2023-01-16T17:19:01;7.30;99.90
19945;DHT22;10134;50.952;6.930;2023-01-16T17:21:29;7.30;99.90
19945;DHT22;10134;50.952;6.930;2023-01-16T17:23:56;7.30;99.90
19945;DHT22;10134;50.952;6.930;2023-01-16T17:26:24;7.30;99.90
19945;DHT22;10134;50.952;6.930;2023-01-16T17:28:51;7.20;99.90
19945;DHT22;10134;50.952;6.930;2023-01-16T17:31:20;7.20;99.90
19945;DHT22;10134;50.952;6.930;2023-01-16T17:33:48;7.20;99.90
19945;DHT22;10134;50.952;6.930;2023-01-16T17:36:23;7.30;99.90
19945;DHT22;10134;50.952;6.930;2023-01-16T17:38:51;7.30;99.90
19945;DHT22;10134;50.952;6.930;2023-01-16T17:41:21;7.20;99.90
19945;DHT22;10134;50.952;6.930;2023-01-16T17:44:16;7.20;99.90
19945;DHT22;10134;50.952;6.930;2023-01-16T17:47:03;7.20;99.90
19945;DHT22;10134;50.952;6.930;2023-01-16T17:49:31;7.10;99.90
19945;DHT22;10134;50.952;6.930;2023-01-16T17:51:59;7.10;99.90
19945;DHT22;10134;50.952;6.930;2023-01-16T17:54:26;7.10;99.90
19945;DHT22;10134;50.952;6.930;2023-01-16T17:57:12;7.00;99.90
19945;DHT22;10134;50.952;6.930;2023-01-16T17:59:39;7.00;99.90
19945;DHT22;10134;50.952;6.930;2023-01-16T18:02:08;7.10;99.90
19945;DHT22;10134;50.952;6.930;2023-01-16T18:04:35;7.10;99.90
19945;DHT22;10134;50.952;6.930;2023-01-16T18:07:03;7.10;99.90
19945;DHT22;10134;50.952;6.930;2023-01-16T18:09:32;7.10;99.90
19945;DHT22;10134;50.952;6.930;2023-01-16T18:12:00;7.10;99.90
19945;DHT22;10134;50.952;6.930;2023-01-16T18:14:46;7.10;99.90
19945;DHT22;10134;50.952;6.930;2023-01-16T18:17:32;7.10;99.90
19945;DHT22;10134;50.952;6.930;2023-01-16T18:20:00;7.10;99.90
19945;DHT22;10134;50.952;6.930;2023-01-16T18:22:32;7.10;99.90
19945;DHT22;10134;50.952;6.930;2023-01-16T18:25:02;7.10;99.90
19945;DHT22;10134;50.952;6.930;2023-01-16T18:27:30;7.10;99.90
19945;DHT22;10134;50.952;6.930;2023-01-16T18:29:57;7.10;99.90
19945;DHT22;10134;50.952;6.930;2023-01-16T18:32:27;7.10;99.90
19945;DHT22;10134;50.952;6.930;2023-01-16T18:35:00;7.10;99.90
19945;DHT22;10134;50.952;6.930;2023-01-16T18:37:39;7.10;99.90
19945;DHT22;10134;50.952;6.930;2023-01-16T18:40:11;7.10;99.90
19945;DHT22;10134;50.952;6.930;2023-01-16T18:42:58;7.10;99.90
19945;DHT22;10134;50.952;6.930;2023-01-16T18:45:43;7.10;99.90
19945;DHT22;10134;50.952;6.930;2023-01-16T18:48:31;7.10;99.90
19945;DHT22;10134;50.952;6.930;2023-01-16T18:51:33;7.10;99.90
19945;DHT22;10134;50.952;6.930;2023-01-16T18:54:20;7.10;99.90
19945;DHT22;10134;50.952;6.930;2023-01-16T18:57:25;7.10;99.90
19945;DHT22;10134;50.952;6.930;2023-01-16T19:00:15;7.10;99.90
19945;DHT22;10134;50.952;6.930;2023-01-16T19:03:02;7.10;99.90
19945;DHT22;10134;50.952;6.930;2023-01-16T19:05:30;7.10;99.90
19945;DHT22;10134;50.952;6.930;2023-01-16T19:08:00;7.00;99.90